Terminal Aerodrome Forecast
Issued by NWS

Home | Current Version | Previous Version | Text Only | Print | Product List | Glossary On
Versions: 1 2 3 4 5 6 7 8 9 10 11 12 13 14 15 16 17 18 19
000
FTUS44 KMAF 281628 AAC
TAFINK
TAF AMD
KINK 281628Z 2816/2912 24011KT P6SM FEW130
     FM282200 26025G35KT P6SM SCT130=

USA.gov is the U.S. government's official web portal to all federal, state and local government web resources and services.